sensor_id;sensor_type;location;lat;lon;timestamp;P1;durP1;ratioP1;P2;durP2;ratioP2
14975;SDS011;7584;60.468;25.126;2023-04-12T00:00:13;4.93;;;2.60;;
14975;SDS011;7584;60.468;25.126;2023-04-12T00:02:39;5.20;;;2.43;;
14975;SDS011;7584;60.468;25.126;2023-04-12T00:05:06;3.83;;;2.40;;
14975;SDS011;7584;60.468;25.126;2023-04-12T00:07:33;4.77;;;2.40;;
14975;SDS011;7584;60.468;25.126;2023-04-12T00:09:59;5.27;;;2.50;;
14975;SDS011;7584;60.468;25.126;2023-04-12T00:12:24;3.43;;;2.30;;
14975;SDS011;7584;60.468;25.126;2023-04-12T00:14:49;3.57;;;2.60;;
14975;SDS011;7584;60.468;25.126;2023-04-12T00:17:15;11.77;;;4.10;;
14975;SDS011;7584;60.468;25.126;2023-04-12T00:19:40;3.57;;;2.43;;
14975;SDS011;7584;60.468;25.126;2023-04-12T00:22:09;6.63;;;2.47;;
14975;SDS011;7584;60.468;25.126;2023-04-12T00:24:34;5.47;;;2.40;;
14975;SDS011;7584;60.468;25.126;2023-04-12T00:27:00;2.67;;;2.20;;
14975;SDS011;7584;60.468;25.126;2023-04-12T00:29:30;3.13;;;2.57;;
14975;SDS011;7584;60.468;25.126;2023-04-12T00:31:55;6.10;;;2.80;;
14975;SDS011;7584;60.468;25.126;2023-04-12T00:34:21;4.60;;;2.40;;
14975;SDS011;7584;60.468;25.126;2023-04-12T00:36:46;4.97;;;2.53;;
14975;SDS011;7584;60.468;25.126;2023-04-12T00:39:11;4.70;;;3.10;;
14975;SDS011;7584;60.468;25.126;2023-04-12T00:41:37;3.57;;;2.37;;
14975;SDS011;7584;60.468;25.126;2023-04-12T00:44:02;4.50;;;2.70;;
14975;SDS011;7584;60.468;25.126;2023-04-12T00:46:28;3.00;;;2.40;;
14975;SDS011;7584;60.468;25.126;2023-04-12T00:48:54;4.50;;;2.70;;
14975;SDS011;7584;60.468;25.126;2023-04-12T00:51:21;4.17;;;2.53;;
14975;SDS011;7584;60.468;25.126;2023-04-12T00:53:46;7.30;;;2.93;;
14975;SDS011;7584;60.468;25.126;2023-04-12T00:56:12;4.33;;;2.30;;
14975;SDS011;7584;60.468;25.126;2023-04-12T00:58:37;4.57;;;2.60;;
14975;SDS011;7584;60.468;25.126;2023-04-12T01:01:03;4.50;;;2.43;;
14975;SDS011;7584;60.468;25.126;2023-04-12T01:03:28;4.07;;;2.40;;
14975;SDS011;7584;60.468;25.126;2023-04-12T01:08:36;5.37;;;2.63;;
14975;SDS011;7584;60.468;25.126;2023-04-12T01:13:31;5.30;;;2.87;;
14975;SDS011;7584;60.468;25.126;2023-04-12T01:16:03;5.37;;;2.83;;
14975;SDS011;7584;60.468;25.126;2023-04-12T01:18:32;5.63;;;2.53;;
14975;SDS011;7584;60.468;25.126;2023-04-12T01:21:05;6.07;;;2.40;;
14975;SDS011;7584;60.468;25.126;2023-04-12T01:26:25;4.53;;;2.53;;
14975;SDS011;7584;60.468;25.126;2023-04-12T01:28:57;3.67;;;2.60;;
14975;SDS011;7584;60.468;25.126;2023-04-12T01:31:24;4.27;;;2.27;;
14975;SDS011;7584;60.468;25.126;2023-04-12T01:33:51;5.00;;;2.80;;
14975;SDS011;7584;60.468;25.126;2023-04-12T01:36:19;4.10;;;2.83;;
14975;SDS011;7584;60.468;25.126;2023-04-12T01:38:45;3.57;;;2.60;;
14975;SDS011;7584;60.468;25.126;2023-04-12T01:41:10;3.27;;;2.70;;
14975;SDS011;7584;60.468;25.126;2023-04-12T01:43:39;6.17;;;2.70;;
14975;SDS011;7584;60.468;25.126;2023-04-12T01:46:05;3.80;;;2.50;;
14975;SDS011;7584;60.468;25.126;2023-04-12T01:48:30;5.13;;;2.33;;
14975;SDS011;7584;60.468;25.126;2023-04-12T01:51:05;4.67;;;2.77;;
14975;SDS011;7584;60.468;25.126;2023-04-12T01:55:57;3.57;;;2.77;;
14975;SDS011;7584;60.468;25.126;2023-04-12T01:58:23;5.37;;;2.97;;
14975;SDS011;7584;60.468;25.126;2023-04-12T02:00:49;3.90;;;3.10;;
14975;SDS011;7584;60.468;25.126;2023-04-12T02:03:15;3.13;;;2.40;;
14975;SDS011;7584;60.468;25.126;2023-04-12T02:05:41;5.73;;;3.13;;
14975;SDS011;7584;60.468;25.126;2023-04-12T02:08:06;4.80;;;2.93;;
14975;SDS011;7584;60.468;25.126;2023-04-12T02:10:32;8.23;;;3.03;;
14975;SDS011;7584;60.468;25.126;2023-04-12T02:13:00;6.67;;;2.77;;
14975;SDS011;7584;60.468;25.126;2023-04-12T02:15:29;3.23;;;2.60;;
14975;SDS011;7584;60.468;25.126;2023-04-12T02:17:54;4.03;;;2.57;;
14975;SDS011;7584;60.468;25.126;2023-04-12T02:20:20;3.80;;;2.67;;
14975;SDS011;7584;60.468;25.126;2023-04-12T02:22:45;4.73;;;2.53;;
14975;SDS011;7584;60.468;25.126;2023-04-12T02:25:11;4.90;;;2.77;;
14975;SDS011;7584;60.468;25.126;2023-04-12T02:27:36;3.43;;;2.40;;
14975;SDS011;7584;60.468;25.126;2023-04-12T02:30:02;5.97;;;2.70;;
14975;SDS011;7584;60.468;25.126;2023-04-12T02:32:28;5.43;;;2.40;;
14975;SDS011;7584;60.468;25.126;2023-04-12T02:34:54;3.93;;;2.43;;
14975;SDS011;7584;60.468;25.126;2023-04-12T02:37:21;6.53;;;3.13;;
14975;SDS011;7584;60.468;25.126;2023-04-12T02:39:48;4.30;;;2.50;;
14975;SDS011;7584;60.468;25.126;2023-04-12T02:42:14;4.70;;;2.60;;
14975;SDS011;7584;60.468;25.126;2023-04-12T02:44:39;8.57;;;3.57;;
14975;SDS011;7584;60.468;25.126;2023-04-12T02:47:05;8.23;;;3.40;;
14975;SDS011;7584;60.468;25.126;2023-04-12T02:49:31;11.07;;;3.20;;
14975;SDS011;7584;60.468;25.126;2023-04-12T02:51:56;12.13;;;3.20;;
14975;SDS011;7584;60.468;25.126;2023-04-12T02:54:21;12.23;;;3.07;;
14975;SDS011;7584;60.468;25.126;2023-04-12T02:56:47;11.63;;;3.27;;
14975;SDS011;7584;60.468;25.126;2023-04-12T02:59:12;4.47;;;2.80;;
14975;SDS011;7584;60.468;25.126;2023-04-12T03:01:37;7.17;;;3.07;;
14975;SDS011;7584;60.468;25.126;2023-04-12T03:04:04;4.87;;;3.03;;
14975;SDS011;7584;60.468;25.126;2023-04-12T03:06:29;3.80;;;2.60;;
14975;SDS011;7584;60.468;25.126;2023-04-12T03:08:56;7.27;;;3.10;;
14975;SDS011;7584;60.468;25.126;2023-04-12T03:11:22;7.70;;;3.47;;
14975;SDS011;7584;60.468;25.126;2023-04-12T03:13:47;6.83;;;2.87;;
14975;SDS011;7584;60.468;25.126;2023-04-12T03:16:19;9.33;;;3.07;;
14975;SDS011;7584;60.468;25.126;2023-04-12T03:18:45;7.63;;;2.90;;
14975;SDS011;7584;60.468;25.126;2023-04-12T03:21:11;6.00;;;3.30;;
14975;SDS011;7584;60.468;25.126;2023-04-12T03:23:36;5.83;;;3.40;;
14975;SDS011;7584;60.468;25.126;2023-04-12T03:26:01;7.40;;;3.10;;
14975;SDS011;7584;60.468;25.126;2023-04-12T03:28:27;7.17;;;3.43;;
14975;SDS011;7584;60.468;25.126;2023-04-12T03:30:53;6.97;;;3.23;;
14975;SDS011;7584;60.468;25.126;2023-04-12T03:33:18;10.93;;;3.80;;
14975;SDS011;7584;60.468;25.126;2023-04-12T03:35:43;12.20;;;3.27;;
14975;SDS011;7584;60.468;25.126;2023-04-12T03:38:09;12.83;;;3.80;;
14975;SDS011;7584;60.468;25.126;2023-04-12T03:40:34;6.87;;;3.20;;
14975;SDS011;7584;60.468;25.126;2023-04-12T03:43:00;25.13;;;4.07;;
14975;SDS011;7584;60.468;25.126;2023-04-12T03:45:25;7.73;;;3.57;;
14975;SDS011;7584;60.468;25.126;2023-04-12T03:47:51;9.10;;;3.33;;
14975;SDS011;7584;60.468;25.126;2023-04-12T03:50:16;10.83;;;2.97;;
14975;SDS011;7584;60.468;25.126;2023-04-12T03:52:41;5.30;;;3.50;;
14975;SDS011;7584;60.468;25.126;2023-04-12T03:55:07;9.33;;;2.73;;
14975;SDS011;7584;60.468;25.126;2023-04-12T03:57:32;7.83;;;3.10;;
14975;SDS011;7584;60.468;25.126;2023-04-12T03:59:57;8.50;;;3.23;;
14975;SDS011;7584;60.468;25.126;2023-04-12T04:02:23;13.57;;;3.53;;
14975;SDS011;7584;60.468;25.126;2023-04-12T04:04:49;8.23;;;3.10;;
14975;SDS011;7584;60.468;25.126;2023-04-12T04:07:14;14.47;;;3.40;;
14975;SDS011;7584;60.468;25.126;2023-04-12T04:09:40;10.40;;;3.27;;
14975;SDS011;7584;60.468;25.126;2023-04-12T04:12:05;11.03;;;3.83;;
14975;SDS011;7584;60.468;25.126;2023-04-12T04:14:31;13.93;;;3.53;;
14975;SDS011;7584;60.468;25.126;2023-04-12T04:16:58;7.60;;;2.90;;
14975;SDS011;7584;60.468;25.126;2023-04-12T04:19:24;10.17;;;3.17;;
14975;SDS011;7584;60.468;25.126;2023-04-12T04:21:49;13.27;;;4.47;;
14975;SDS011;7584;60.468;25.126;2023-04-12T04:24:15;7.37;;;3.20;;
14975;SDS011;7584;60.468;25.126;2023-04-12T04:26:42;9.90;;;3.60;;
14975;SDS011;7584;60.468;25.126;2023-04-12T04:29:09;8.07;;;3.13;;
14975;SDS011;7584;60.468;25.126;2023-04-12T04:31:36;13.33;;;3.73;;
14975;SDS011;7584;60.468;25.126;2023-04-12T04:34:05;10.63;;;3.67;;
14975;SDS011;7584;60.468;25.126;2023-04-12T04:36:32;10.27;;;3.07;;
14975;SDS011;7584;60.468;25.126;2023-04-12T04:38:57;9.03;;;3.50;;
14975;SDS011;7584;60.468;25.126;2023-04-12T04:41:22;10.90;;;3.53;;
14975;SDS011;7584;60.468;25.126;2023-04-12T04:43:48;10.20;;;2.73;;
14975;SDS011;7584;60.468;25.126;2023-04-12T04:46:14;8.80;;;3.77;;
14975;SDS011;7584;60.468;25.126;2023-04-12T04:48:41;9.17;;;3.33;;
14975;SDS011;7584;60.468;25.126;2023-04-12T04:51:06;8.00;;;2.83;;
14975;SDS011;7584;60.468;25.126;2023-04-12T04:53:31;18.03;;;4.33;;
14975;SDS011;7584;60.468;25.126;2023-04-12T04:55:57;11.93;;;4.17;;
14975;SDS011;7584;60.468;25.126;2023-04-12T04:58:23;9.97;;;3.40;;
14975;SDS011;7584;60.468;25.126;2023-04-12T05:00:48;14.10;;;3.47;;
14975;SDS011;7584;60.468;25.126;2023-04-12T05:03:13;20.03;;;3.90;;
14975;SDS011;7584;60.468;25.126;2023-04-12T05:05:38;12.70;;;3.13;;
14975;SDS011;7584;60.468;25.126;2023-04-12T05:08:04;10.90;;;3.23;;
14975;SDS011;7584;60.468;25.126;2023-04-12T05:10:29;15.57;;;3.87;;
14975;SDS011;7584;60.468;25.126;2023-04-12T05:12:55;15.77;;;3.23;;
14975;SDS011;7584;60.468;25.126;2023-04-12T05:15:20;8.77;;;3.77;;
14975;SDS011;7584;60.468;25.126;2023-04-12T05:17:45;9.27;;;3.40;;
14975;SDS011;7584;60.468;25.126;2023-04-12T05:20:11;6.73;;;3.17;;
14975;SDS011;7584;60.468;25.126;2023-04-12T05:22:36;9.77;;;3.37;;
14975;SDS011;7584;60.468;25.126;2023-04-12T05:25:01;10.20;;;3.40;;
14975;SDS011;7584;60.468;25.126;2023-04-12T05:27:28;11.10;;;3.47;;
14975;SDS011;7584;60.468;25.126;2023-04-12T05:29:53;8.40;;;3.23;;
14975;SDS011;7584;60.468;25.126;2023-04-12T05:32:18;5.70;;;2.77;;
14975;SDS011;7584;60.468;25.126;2023-04-12T05:34:44;10.33;;;3.60;;
14975;SDS011;7584;60.468;25.126;2023-04-12T05:37:09;7.03;;;3.27;;
14975;SDS011;7584;60.468;25.126;2023-04-12T05:39:35;11.20;;;3.40;;
14975;SDS011;7584;60.468;25.126;2023-04-12T05:42:00;16.17;;;3.20;;
14975;SDS011;7584;60.468;25.126;2023-04-12T05:44:25;7.97;;;3.13;;
14975;SDS011;7584;60.468;25.126;2023-04-12T05:46:51;8.03;;;3.20;;
14975;SDS011;7584;60.468;25.126;2023-04-12T05:49:16;6.87;;;2.93;;
14975;SDS011;7584;60.468;25.126;2023-04-12T05:51:41;6.93;;;3.33;;
14975;SDS011;7584;60.468;25.126;2023-04-12T05:54:07;7.47;;;3.37;;
14975;SDS011;7584;60.468;25.126;2023-04-12T05:56:33;6.73;;;3.60;;
14975;SDS011;7584;60.468;25.126;2023-04-12T05:58:58;13.03;;;3.90;;
14975;SDS011;7584;60.468;25.126;2023-04-12T06:01:26;8.97;;;4.73;;
14975;SDS011;7584;60.468;25.126;2023-04-12T06:03:55;8.83;;;4.50;;
14975;SDS011;7584;60.468;25.126;2023-04-12T06:06:20;16.90;;;6.03;;
14975;SDS011;7584;60.468;25.126;2023-04-12T06:08:46;11.70;;;6.30;;
14975;SDS011;7584;60.468;25.126;2023-04-12T06:11:11;12.47;;;5.17;;
14975;SDS011;7584;60.468;25.126;2023-04-12T06:13:36;12.13;;;6.00;;
14975;SDS011;7584;60.468;25.126;2023-04-12T06:16:02;10.30;;;4.57;;
14975;SDS011;7584;60.468;25.126;2023-04-12T06:18:27;10.63;;;5.60;;
14975;SDS011;7584;60.468;25.126;2023-04-12T06:20:53;11.00;;;6.20;;
14975;SDS011;7584;60.468;25.126;2023-04-12T06:23:18;13.37;;;6.10;;
14975;SDS011;7584;60.468;25.126;2023-04-12T06:25:43;13.77;;;6.53;;
14975;SDS011;7584;60.468;25.126;2023-04-12T06:28:08;13.17;;;6.17;;
14975;SDS011;7584;60.468;25.126;2023-04-12T06:30:34;11.70;;;6.00;;
14975;SDS011;7584;60.468;25.126;2023-04-12T06:32:59;13.67;;;6.23;;
14975;SDS011;7584;60.468;25.126;2023-04-12T06:35:24;14.20;;;5.73;;
14975;SDS011;7584;60.468;25.126;2023-04-12T06:37:50;9.30;;;5.27;;
14975;SDS011;7584;60.468;25.126;2023-04-12T06:40:15;10.17;;;4.40;;
14975;SDS011;7584;60.468;25.126;2023-04-12T06:42:40;8.83;;;3.77;;
14975;SDS011;7584;60.468;25.126;2023-04-12T06:45:06;6.93;;;3.50;;
14975;SDS011;7584;60.468;25.126;2023-04-12T06:47:31;9.30;;;3.23;;
14975;SDS011;7584;60.468;25.126;2023-04-12T06:49:57;6.73;;;3.00;;
14975;SDS011;7584;60.468;25.126;2023-04-12T06:52:25;7.60;;;3.00;;
14975;SDS011;7584;60.468;25.126;2023-04-12T06:54:51;5.37;;;2.80;;
14975;SDS011;7584;60.468;25.126;2023-04-12T06:57:16;8.17;;;2.50;;
14975;SDS011;7584;60.468;25.126;2023-04-12T06:59:42;4.82;;;2.70;;
14975;SDS011;7584;60.468;25.126;2023-04-12T07:02:07;3.28;;;2.25;;
14975;SDS011;7584;60.468;25.126;2023-04-12T07:04:32;4.35;;;2.40;;
14975;SDS011;7584;60.468;25.126;2023-04-12T07:06:58;5.40;;;2.67;;
14975;SDS011;7584;60.468;25.126;2023-04-12T07:09:23;6.13;;;3.03;;
14975;SDS011;7584;60.468;25.126;2023-04-12T07:11:48;6.60;;;3.33;;
14975;SDS011;7584;60.468;25.126;2023-04-12T07:14:14;8.35;;;2.60;;
14975;SDS011;7584;60.468;25.126;2023-04-12T07:16:41;6.85;;;2.88;;
14975;SDS011;7584;60.468;25.126;2023-04-12T07:19:06;6.85;;;3.00;;
14975;SDS011;7584;60.468;25.126;2023-04-12T07:21:32;7.18;;;2.67;;
14975;SDS011;7584;60.468;25.126;2023-04-12T07:23:57;3.65;;;2.50;;
14975;SDS011;7584;60.468;25.126;2023-04-12T07:26:23;4.35;;;2.13;;
14975;SDS011;7584;60.468;25.126;2023-04-12T07:28:48;5.25;;;2.28;;
14975;SDS011;7584;60.468;25.126;2023-04-12T07:31:13;4.15;;;2.35;;
14975;SDS011;7584;60.468;25.126;2023-04-12T07:33:39;4.35;;;2.30;;
14975;SDS011;7584;60.468;25.126;2023-04-12T07:36:04;3.72;;;2.35;;
14975;SDS011;7584;60.468;25.126;2023-04-12T07:38:30;5.75;;;2.80;;
14975;SDS011;7584;60.468;25.126;2023-04-12T07:40:55;3.67;;;2.67;;
14975;SDS011;7584;60.468;25.126;2023-04-12T07:43:21;5.40;;;2.95;;
14975;SDS011;7584;60.468;25.126;2023-04-12T07:45:46;6.80;;;2.70;;
14975;SDS011;7584;60.468;25.126;2023-04-12T07:48:12;5.53;;;2.80;;
14975;SDS011;7584;60.468;25.126;2023-04-12T07:50:38;4.40;;;2.53;;
14975;SDS011;7584;60.468;25.126;2023-04-12T07:53:17;5.28;;;2.60;;
14975;SDS011;7584;60.468;25.126;2023-04-12T07:55:43;3.00;;;2.35;;
14975;SDS011;7584;60.468;25.126;2023-04-12T07:58:08;2.83;;;2.20;;
14975;SDS011;7584;60.468;25.126;2023-04-12T08:00:33;3.92;;;2.20;;
14975;SDS011;7584;60.468;25.126;2023-04-12T08:02:59;5.82;;;2.50;;
14975;SDS011;7584;60.468;25.126;2023-04-12T08:05:24;4.85;;;1.95;;
14975;SDS011;7584;60.468;25.126;2023-04-12T08:07:50;6.10;;;2.28;;
14975;SDS011;7584;60.468;25.126;2023-04-12T08:10:15;6.63;;;2.35;;
14975;SDS011;7584;60.468;25.126;2023-04-12T08:12:40;7.15;;;2.85;;
14975;SDS011;7584;60.468;25.126;2023-04-12T08:15:06;5.95;;;2.53;;
14975;SDS011;7584;60.468;25.126;2023-04-12T08:17:31;5.32;;;2.45;;
14975;SDS011;7584;60.468;25.126;2023-04-12T08:19:56;7.05;;;2.90;;
14975;SDS011;7584;60.468;25.126;2023-04-12T08:22:21;9.77;;;2.55;;
14975;SDS011;7584;60.468;25.126;2023-04-12T08:24:47;5.75;;;2.55;;
14975;SDS011;7584;60.468;25.126;2023-04-12T08:27:12;11.20;;;3.08;;
14975;SDS011;7584;60.468;25.126;2023-04-12T08:29:38;5.05;;;2.50;;
14975;SDS011;7584;60.468;25.126;2023-04-12T08:32:03;3.92;;;2.13;;
14975;SDS011;7584;60.468;25.126;2023-04-12T08:34:29;5.13;;;2.40;;
14975;SDS011;7584;60.468;25.126;2023-04-12T08:36:54;7.25;;;2.40;;
14975;SDS011;7584;60.468;25.126;2023-04-12T08:39:23;4.50;;;2.15;;
14975;SDS011;7584;60.468;25.126;2023-04-12T08:41:48;7.85;;;2.40;;
14975;SDS011;7584;60.468;25.126;2023-04-12T08:44:14;5.97;;;2.30;;
14975;SDS011;7584;60.468;25.126;2023-04-12T08:46:40;8.73;;;2.63;;
14975;SDS011;7584;60.468;25.126;2023-04-12T08:49:06;5.57;;;2.15;;
14975;SDS011;7584;60.468;25.126;2023-04-12T08:51:31;4.15;;;2.30;;
14975;SDS011;7584;60.468;25.126;2023-04-12T08:53:57;4.45;;;2.40;;
14975;SDS011;7584;60.468;25.126;2023-04-12T08:56:23;6.63;;;2.53;;
14975;SDS011;7584;60.468;25.126;2023-04-12T08:58:49;4.43;;;2.50;;
14975;SDS011;7584;60.468;25.126;2023-04-12T09:01:16;5.32;;;2.10;;
14975;SDS011;7584;60.468;25.126;2023-04-12T09:03:42;9.48;;;2.60;;
14975;SDS011;7584;60.468;25.126;2023-04-12T09:06:08;5.38;;;2.47;;
14975;SDS011;7584;60.468;25.126;2023-04-12T09:08:34;3.85;;;2.47;;
14975;SDS011;7584;60.468;25.126;2023-04-12T09:11:00;3.47;;;2.30;;
14975;SDS011;7584;60.468;25.126;2023-04-12T09:13:30;5.80;;;2.55;;
14975;SDS011;7584;60.468;25.126;2023-04-12T09:15:55;5.07;;;2.20;;
14975;SDS011;7584;60.468;25.126;2023-04-12T09:18:20;5.43;;;2.05;;
14975;SDS011;7584;60.468;25.126;2023-04-12T09:20:47;5.65;;;2.30;;
14975;SDS011;7584;60.468;25.126;2023-04-12T09:23:15;5.57;;;1.80;;
14975;SDS011;7584;60.468;25.126;2023-04-12T09:25:42;4.03;;;1.90;;
14975;SDS011;7584;60.468;25.126;2023-04-12T09:30:44;2.67;;;2.00;;
14975;SDS011;7584;60.468;25.126;2023-04-12T09:33:15;2.50;;;1.85;;
14975;SDS011;7584;60.468;25.126;2023-04-12T09:35:40;2.33;;;2.03;;
14975;SDS011;7584;60.468;25.126;2023-04-12T09:38:07;4.68;;;2.40;;
14975;SDS011;7584;60.468;25.126;2023-04-12T09:40:33;10.55;;;2.53;;
14975;SDS011;7584;60.468;25.126;2023-04-12T09:43:00;4.50;;;2.50;;
14975;SDS011;7584;60.468;25.126;2023-04-12T09:45:26;5.65;;;2.10;;
14975;SDS011;7584;60.468;25.126;2023-04-12T09:47:52;5.72;;;2.03;;
14975;SDS011;7584;60.468;25.126;2023-04-12T09:50:19;3.15;;;2.17;;
14975;SDS011;7584;60.468;25.126;2023-04-12T09:52:44;5.60;;;2.22;;
14975;SDS011;7584;60.468;25.126;2023-04-12T09:55:10;4.15;;;2.13;;
14975;SDS011;7584;60.468;25.126;2023-04-12T09:57:39;4.10;;;2.50;;
14975;SDS011;7584;60.468;25.126;2023-04-12T10:00:06;3.38;;;2.30;;
14975;SDS011;7584;60.468;25.126;2023-04-12T10:02:36;4.15;;;2.22;;
14975;SDS011;7584;60.468;25.126;2023-04-12T10:05:02;2.92;;;2.00;;
14975;SDS011;7584;60.468;25.126;2023-04-12T10:07:27;2.55;;;2.20;;
14975;SDS011;7584;60.468;25.126;2023-04-12T10:09:53;3.13;;;2.33;;
14975;SDS011;7584;60.468;25.126;2023-04-12T10:12:19;3.38;;;2.35;;
14975;SDS011;7584;60.468;25.126;2023-04-12T10:14:44;3.40;;;1.95;;
14975;SDS011;7584;60.468;25.126;2023-04-12T10:17:10;4.80;;;2.25;;
14975;SDS011;7584;60.468;25.126;2023-04-12T10:19:37;4.20;;;2.30;;
14975;SDS011;7584;60.468;25.126;2023-04-12T10:22:03;3.20;;;2.50;;
14975;SDS011;7584;60.468;25.126;2023-04-12T10:24:28;3.22;;;2.28;;
14975;SDS011;7584;60.468;25.126;2023-04-12T10:26:54;4.88;;;2.53;;
14975;SDS011;7584;60.468;25.126;2023-04-12T10:29:24;5.57;;;2.60;;
14975;SDS011;7584;60.468;25.126;2023-04-12T10:31:50;2.78;;;2.22;;
14975;SDS011;7584;60.468;25.126;2023-04-12T10:34:16;7.20;;;2.53;;
14975;SDS011;7584;60.468;25.126;2023-04-12T10:39:33;3.08;;;2.17;;
14975;SDS011;7584;60.468;25.126;2023-04-12T10:44:40;4.32;;;2.50;;
14975;SDS011;7584;60.468;25.126;2023-04-12T10:47:05;3.83;;;2.20;;
14975;SDS011;7584;60.468;25.126;2023-04-12T10:49:30;7.22;;;2.55;;
14975;SDS011;7584;60.468;25.126;2023-04-12T10:56:50;5.25;;;2.33;;
14975;SDS011;7584;60.468;25.126;2023-04-12T10:59:15;7.07;;;2.33;;
14975;SDS011;7584;60.468;25.126;2023-04-12T11:01:41;7.10;;;2.50;;
14975;SDS011;7584;60.468;25.126;2023-04-12T11:04:26;9.07;;;2.50;;
14975;SDS011;7584;60.468;25.126;2023-04-12T11:11:45;9.25;;;3.13;;
14975;SDS011;7584;60.468;25.126;2023-04-12T11:14:12;3.83;;;2.60;;
14975;SDS011;7584;60.468;25.126;2023-04-12T11:19:21;3.45;;;2.33;;
14975;SDS011;7584;60.468;25.126;2023-04-12T11:21:47;3.22;;;2.35;;
14975;SDS011;7584;60.468;25.126;2023-04-12T11:24:12;5.30;;;2.42;;
14975;SDS011;7584;60.468;25.126;2023-04-12T11:26:38;3.72;;;2.10;;
14975;SDS011;7584;60.468;25.126;2023-04-12T11:29:06;5.70;;;2.10;;
14975;SDS011;7584;60.468;25.126;2023-04-12T11:31:32;4.38;;;2.33;;
14975;SDS011;7584;60.468;25.126;2023-04-12T11:33:58;6.45;;;2.42;;
14975;SDS011;7584;60.468;25.126;2023-04-12T11:36:23;3.75;;;2.28;;
14975;SDS011;7584;60.468;25.126;2023-04-12T11:38:50;8.73;;;2.78;;
14975;SDS011;7584;60.468;25.126;2023-04-12T11:41:15;3.88;;;2.50;;
14975;SDS011;7584;60.468;25.126;2023-04-12T11:43:42;4.32;;;2.30;;
14975;SDS011;7584;60.468;25.126;2023-04-12T11:46:08;2.78;;;2.20;;
14975;SDS011;7584;60.468;25.126;2023-04-12T11:48:34;5.57;;;2.83;;
14975;SDS011;7584;60.468;25.126;2023-04-12T11:51:17;4.03;;;2.20;;
14975;SDS011;7584;60.468;25.126;2023-04-12T11:53:44;2.65;;;2.00;;
14975;SDS011;7584;60.468;25.126;2023-04-12T11:56:09;3.95;;;2.28;;
14975;SDS011;7584;60.468;25.126;2023-04-12T11:58:35;2.58;;;2.38;;
14975;SDS011;7584;60.468;25.126;2023-04-12T12:01:00;5.22;;;2.20;;
14975;SDS011;7584;60.468;25.126;2023-04-12T12:03:26;3.90;;;2.70;;
14975;SDS011;7584;60.468;25.126;2023-04-12T12:05:51;2.97;;;2.33;;
14975;SDS011;7584;60.468;25.126;2023-04-12T12:08:17;5.65;;;2.95;;
14975;SDS011;7584;60.468;25.126;2023-04-12T12:10:43;4.30;;;2.45;;
14975;SDS011;7584;60.468;25.126;2023-04-12T12:13:11;6.60;;;2.63;;
14975;SDS011;7584;60.468;25.126;2023-04-12T12:15:38;4.90;;;2.55;;
14975;SDS011;7584;60.468;25.126;2023-04-12T12:18:05;5.97;;;2.60;;
14975;SDS011;7584;60.468;25.126;2023-04-12T12:20:32;5.32;;;2.55;;
14975;SDS011;7584;60.468;25.126;2023-04-12T12:22:57;4.65;;;2.65;;
14975;SDS011;7584;60.468;25.126;2023-04-12T12:25:23;5.35;;;2.42;;
14975;SDS011;7584;60.468;25.126;2023-04-12T12:27:48;3.88;;;2.38;;
14975;SDS011;7584;60.468;25.126;2023-04-12T12:30:21;4.07;;;2.17;;
14975;SDS011;7584;60.468;25.126;2023-04-12T12:32:48;5.00;;;2.30;;
14975;SDS011;7584;60.468;25.126;2023-04-12T12:35:14;6.43;;;2.53;;
14975;SDS011;7584;60.468;25.126;2023-04-12T12:37:49;5.35;;;2.70;;
14975;SDS011;7584;60.468;25.126;2023-04-12T12:40:15;5.80;;;2.55;;
14975;SDS011;7584;60.468;25.126;2023-04-12T12:42:49;8.88;;;2.47;;
14975;SDS011;7584;60.468;25.126;2023-04-12T12:45:15;3.67;;;2.05;;
14975;SDS011;7584;60.468;25.126;2023-04-12T12:47:45;3.33;;;2.50;;
14975;SDS011;7584;60.468;25.126;2023-04-12T12:50:10;6.93;;;2.80;;
14975;SDS011;7584;60.468;25.126;2023-04-12T12:52:38;4.70;;;2.40;;
14975;SDS011;7584;60.468;25.126;2023-04-12T12:55:03;6.53;;;2.45;;
14975;SDS011;7584;60.468;25.126;2023-04-12T12:57:28;4.38;;;2.47;;
14975;SDS011;7584;60.468;25.126;2023-04-12T12:59:54;4.90;;;2.40;;
14975;SDS011;7584;60.468;25.126;2023-04-12T13:02:19;4.15;;;2.03;;
14975;SDS011;7584;60.468;25.126;2023-04-12T13:04:45;2.65;;;2.33;;
14975;SDS011;7584;60.468;25.126;2023-04-12T13:07:10;4.63;;;2.65;;
14975;SDS011;7584;60.468;25.126;2023-04-12T13:09:35;3.65;;;2.40;;
14975;SDS011;7584;60.468;25.126;2023-04-12T13:12:00;4.20;;;2.38;;
14975;SDS011;7584;60.468;25.126;2023-04-12T13:14:26;3.05;;;2.13;;
14975;SDS011;7584;60.468;25.126;2023-04-12T13:16:51;9.15;;;2.78;;
14975;SDS011;7584;60.468;25.126;2023-04-12T13:19:16;4.20;;;2.50;;
14975;SDS011;7584;60.468;25.126;2023-04-12T13:21:42;4.38;;;2.33;;
14975;SDS011;7584;60.468;25.126;2023-04-12T13:24:07;4.45;;;2.45;;
14975;SDS011;7584;60.468;25.126;2023-04-12T13:26:33;12.95;;;3.10;;
14975;SDS011;7584;60.468;25.126;2023-04-12T13:28:58;4.72;;;2.25;;
14975;SDS011;7584;60.468;25.126;2023-04-12T13:31:25;6.03;;;2.58;;
14975;SDS011;7584;60.468;25.126;2023-04-12T13:33:50;4.43;;;1.98;;
14975;SDS011;7584;60.468;25.126;2023-04-12T13:36:16;6.47;;;2.20;;
14975;SDS011;7584;60.468;25.126;2023-04-12T13:38:41;4.97;;;2.25;;
14975;SDS011;7584;60.468;25.126;2023-04-12T13:41:06;3.13;;;2.10;;
14975;SDS011;7584;60.468;25.126;2023-04-12T13:43:32;5.10;;;2.33;;
14975;SDS011;7584;60.468;25.126;2023-04-12T13:45:57;3.95;;;2.30;;
14975;SDS011;7584;60.468;25.126;2023-04-12T13:48:23;2.35;;;2.15;;
14975;SDS011;7584;60.468;25.126;2023-04-12T13:50:48;4.55;;;2.10;;
14975;SDS011;7584;60.468;25.126;2023-04-12T13:53:14;4.30;;;2.50;;
14975;SDS011;7584;60.468;25.126;2023-04-12T13:55:40;4.35;;;2.20;;
14975;SDS011;7584;60.468;25.126;2023-04-12T13:58:05;3.83;;;2.10;;
14975;SDS011;7584;60.468;25.126;2023-04-12T14:00:30;3.33;;;2.38;;
14975;SDS011;7584;60.468;25.126;2023-04-12T14:02:56;3.92;;;2.20;;
14975;SDS011;7584;60.468;25.126;2023-04-12T14:05:21;5.10;;;2.50;;
14975;SDS011;7584;60.468;25.126;2023-04-12T14:07:46;3.92;;;1.90;;
14975;SDS011;7584;60.468;25.126;2023-04-12T14:10:13;2.88;;;2.25;;
14975;SDS011;7584;60.468;25.126;2023-04-12T14:12:39;3.50;;;2.17;;
14975;SDS011;7584;60.468;25.126;2023-04-12T14:15:04;5.03;;;2.28;;
14975;SDS011;7584;60.468;25.126;2023-04-12T14:17:30;4.00;;;2.30;;
14975;SDS011;7584;60.468;25.126;2023-04-12T14:19:56;4.20;;;2.20;;
14975;SDS011;7584;60.468;25.126;2023-04-12T14:22:21;4.82;;;2.13;;
14975;SDS011;7584;60.468;25.126;2023-04-12T14:24:47;3.38;;;1.83;;
14975;SDS011;7584;60.468;25.126;2023-04-12T14:27:13;4.63;;;1.83;;
14975;SDS011;7584;60.468;25.126;2023-04-12T14:29:38;6.70;;;2.67;;
14975;SDS011;7584;60.468;25.126;2023-04-12T14:32:04;3.83;;;2.05;;
14975;SDS011;7584;60.468;25.126;2023-04-12T14:34:29;5.00;;;2.17;;
14975;SDS011;7584;60.468;25.126;2023-04-12T14:36:55;5.32;;;2.33;;
14975;SDS011;7584;60.468;25.126;2023-04-12T14:39:20;4.22;;;1.90;;
14975;SDS011;7584;60.468;25.126;2023-04-12T14:41:48;3.25;;;1.80;;
14975;SDS011;7584;60.468;25.126;2023-04-12T14:44:13;6.28;;;2.13;;
14975;SDS011;7584;60.468;25.126;2023-04-12T14:46:38;3.25;;;2.00;;
14975;SDS011;7584;60.468;25.126;2023-04-12T14:49:04;4.75;;;2.20;;
14975;SDS011;7584;60.468;25.126;2023-04-12T14:51:29;4.55;;;2.25;;
14975;SDS011;7584;60.468;25.126;2023-04-12T14:53:56;4.93;;;2.03;;
14975;SDS011;7584;60.468;25.126;2023-04-12T14:56:22;2.88;;;1.75;;
14975;SDS011;7584;60.468;25.126;2023-04-12T14:58:49;5.90;;;1.80;;
14975;SDS011;7584;60.468;25.126;2023-04-12T15:01:15;5.47;;;2.25;;
14975;SDS011;7584;60.468;25.126;2023-04-12T15:03:42;2.78;;;1.90;;
14975;SDS011;7584;60.468;25.126;2023-04-12T15:06:08;4.05;;;2.05;;
14975;SDS011;7584;60.468;25.126;2023-04-12T15:08:34;3.78;;;1.98;;